Towncrest Village, Pennsylvania
Current Conditions -  °F | °C
As of 1:54 AM on Thursday 27 Nov 2014 (Local Time) from KIPT Reporting Station
Overcast Overcast  
Wind Chill: 25°   Ceiling: 2300
Heat Index: 32°   Visibility: 10mi
Dew Point: 29°   Wind: 8mph
Humidity: 88%   Direction: 270°W
Pressure: 29.98"   Gusts: NA
Location:  41.246°N, 77.0167°W
Report Text: KIPT 270654Z AUTO 27007KT 10SM BKN023 BKN028 OVC050 00/M02 A2998 RMK AO2 SNB37E46 SLP157 P0000 T00001017
Loading
Personal Weather Stations






























Interactive Weather Map New forecast layout! Learn more

10-Day Weather Forecast

Advertisements
Track Severe Weather on mobile